Homerville, Ohio
Current Conditions -  °F | °C
As of 4:56 PM on Monday 26 Jan 2015 (Local Time) from KBJJ Reporting Station
Unknown Precip Unknown Precip  
Wind Chill:   Ceiling: 1200
Heat Index: 19°   Visibility: 7mi
Dew Point: 14°   Wind: 18mph
Humidity: 81%   Direction: 350°N
Pressure: 29.84"   Gusts: NA
Location:  41.03°N, 82.13°W
Report Text: KBJJ 262156Z AUTO 35016KT 7SM UP OVC012 M07/M10 A2984 RMK AO2 UPB29 SLP123 P0000 T10721100 TSNO
Loading
Personal Weather Stations






























Interactive Weather Map New forecast layout! Learn more

10-Day Weather Forecast

Advertisements
Track Severe Weather on mobile